Time,TemperatureF,DewpointF,PressureIn,WindDirection,WindDirectionDegrees,WindSpeedMPH,WindSpeedGustMPH,Humidity,HourlyPrecipIn,Conditions,Clouds,dailyrainin,SolarRadiationWatts/m^2,SoftwareType,DateUTC
2013-12-27 03:42:00,26.0,10.0,-100.00,NE,56,3.0,5.0,50,-99.99,,,0.00,0.000000,,2013-12-27 10:42:00,
2013-12-27 03:52:00,26.0,10.0,-100.00,NE,56,3.0,5.0,50,-99.99,,,0.00,0.000000,,2013-12-27 10:52:00,
2013-12-27 04:02:00,26.0,10.0,-100.00,NE,56,3.0,5.0,50,-99.99,,,0.00,0.000000,,2013-12-27 11:02:00,
2013-12-27 04:43:00,26.0,8.0,-100.00,NE,48,4.0,10.0,46,0.00,,,0.00,0.000000,,2013-12-27 11:43:00,
2013-12-27 04:53:00,26.0,8.0,-100.00,NE,48,4.0,10.0,46,0.00,,,0.00,0.000000,,2013-12-27 11:53:00,
2013-12-27 05:01:00,26.0,8.0,-100.00,NE,48,4.0,10.0,46,0.00,,,0.00,0.000000,,2013-12-27 12:01:00,
2013-12-27 06:52:00,22.0,11.0,-100.00,North,5,2.0,4.0,63,-99.99,,,0.00,0.000000,,2013-12-27 13:52:00,
2013-12-27 07:02:00,22.0,11.0,-100.00,North,5,2.0,4.0,63,-99.99,,,0.00,0.000000,,2013-12-27 14:02:00,
2013-12-27 07:42:00,24.0,11.0,-100.00,NE,45,3.0,9.0,58,-99.99,,,-99.99,0.000000,,2013-12-27 14:42:00,
2013-12-27 07:52:00,24.0,11.0,-100.00,NE,45,3.0,9.0,58,-99.99,,,-99.99,0.000000,,2013-12-27 14:52:00,
2013-12-27 08:02:00,24.0,11.0,-100.00,NE,45,3.0,9.0,58,-99.99,,,-99.99,0.000000,,2013-12-27 15:02:00,
2013-12-27 08:43:00,32.0,5.0,-100.00,ENE,61,4.0,10.0,31,0.00,,,-99.99,4.000000,,2013-12-27 15:43:00,
2013-12-27 08:54:00,32.0,5.0,-100.00,ENE,61,4.0,10.0,31,0.00,,,-99.99,4.000000,,2013-12-27 15:54:00,
2013-12-27 09:03:00,32.0,5.0,-100.00,ENE,61,4.0,10.0,31,0.00,,,-99.99,4.000000,,2013-12-27 16:03:00,
2013-12-27 09:43:00,39.0,7.0,-100.00,ENE,65,5.0,10.0,26,0.00,,,0.00,62.000000,,2013-12-27 16:43:00,
2013-12-27 09:53:00,39.0,7.0,-100.00,ENE,65,5.0,10.0,26,0.00,,,0.00,62.000000,,2013-12-27 16:53:00,
2013-12-27 10:02:00,39.0,7.0,-100.00,ENE,65,5.0,10.0,26,0.00,,,0.00,62.000000,,2013-12-27 17:02:00,
2013-12-27 10:43:00,46.0,6.0,-100.00,NE,50,4.0,10.0,19,0.00,,,0.00,293.000000,,2013-12-27 17:43:00,
2013-12-27 10:52:00,46.0,6.0,-100.00,NE,50,4.0,10.0,19,0.00,,,0.00,293.000000,,2013-12-27 17:52:00,
2013-12-27 11:02:00,46.0,6.0,-100.00,NE,50,4.0,10.0,19,0.00,,,0.00,293.000000,,2013-12-27 18:02:00,
2013-12-27 11:42:00,48.0,5.0,-100.00,East,84,5.0,11.0,17,0.00,,,0.00,436.000000,,2013-12-27 18:42:00,
2013-12-27 11:53:00,48.0,5.0,-100.00,East,84,5.0,11.0,17,0.00,,,0.00,436.000000,,2013-12-27 18:53:00,
2013-12-27 12:02:00,48.0,5.0,-100.00,East,84,5.0,11.0,17,0.00,,,0.00,436.000000,,2013-12-27 19:02:00,
2013-12-27 12:42:00,49.0,5.0,-100.00,ENE,64,6.0,12.0,16,0.00,,,0.00,526.000000,,2013-12-27 19:42:00,
2013-12-27 12:52:00,49.0,5.0,-100.00,ENE,64,6.0,12.0,16,0.00,,,0.00,526.000000,,2013-12-27 19:52:00,
2013-12-27 13:02:00,49.0,5.0,-100.00,ENE,64,6.0,12.0,16,0.00,,,0.00,526.000000,,2013-12-27 20:02:00,
2013-12-27 13:42:00,49.0,5.0,-100.00,East,88,5.0,14.0,16,0.00,,,0.00,559.000000,,2013-12-27 20:42:00,
2013-12-27 13:52:00,49.0,5.0,-100.00,East,88,5.0,14.0,16,0.00,,,0.00,559.000000,,2013-12-27 20:52:00,
2013-12-27 14:02:00,49.0,5.0,-100.00,East,88,5.0,14.0,16,0.00,,,0.00,559.000000,,2013-12-27 21:02:00,
2013-12-27 14:43:00,49.0,7.0,-100.00,NE,55,6.0,11.0,18,0.00,,,0.00,528.000000,,2013-12-27 21:43:00,
2013-12-27 14:53:00,49.0,7.0,-100.00,NE,55,6.0,11.0,18,0.00,,,0.00,528.000000,,2013-12-27 21:53:00,
2013-12-27 15:03:00,49.0,7.0,-100.00,NE,55,6.0,11.0,18,0.00,,,0.00,528.000000,,2013-12-27 22:03:00,
2013-12-27 15:43:00,48.0,9.0,-100.00,ENE,69,5.0,12.0,20,0.00,,,0.00,266.000000,,2013-12-27 22:43:00,
2013-12-27 15:53:00,48.0,9.0,-100.00,ENE,69,5.0,12.0,20,0.00,,,0.00,266.000000,,2013-12-27 22:53:00,
2013-12-27 16:02:00,48.0,9.0,-100.00,ENE,69,5.0,12.0,20,0.00,,,0.00,266.000000,,2013-12-27 23:02:00,
2013-12-27 16:42:00,46.0,9.0,-100.00,ENE,59,4.0,10.0,22,0.00,,,0.00,39.000000,,2013-12-27 23:42:00,
2013-12-27 16:52:00,46.0,9.0,-100.00,ENE,59,4.0,10.0,22,0.00,,,0.00,39.000000,,2013-12-27 23:52:00,
2013-12-27 17:02:00,46.0,9.0,-100.00,ENE,59,4.0,10.0,22,0.00,,,0.00,39.000000,,2013-12-28 00:02:00,
2013-12-27 17:42:00,42.0,10.0,-100.00,ENE,66,4.0,10.0,26,0.00,,,-99.99,20.000000,,2013-12-28 00:42:00,
2013-12-27 17:52:00,42.0,10.0,-100.00,ENE,66,4.0,10.0,26,0.00,,,-99.99,20.000000,,2013-12-28 00:52:00,
2013-12-27 18:02:00,42.0,10.0,-100.00,ENE,66,4.0,10.0,26,0.00,,,-99.99,20.000000,,2013-12-28 01:02:00,
2013-12-27 18:42:00,37.0,10.0,-100.00,NW,305,2.0,6.0,32,0.00,,,0.00,1.000000,,2013-12-28 01:42:00,
2013-12-27 18:52:00,37.0,10.0,-100.00,NW,305,2.0,6.0,32,0.00,,,0.00,1.000000,,2013-12-28 01:52:00,
2013-12-27 19:01:00,37.0,10.0,-100.00,NW,305,2.0,6.0,32,0.00,,,0.00,1.000000,,2013-12-28 02:01:00,
2013-12-27 19:42:00,30.0,12.0,-100.00,ENE,75,2.0,4.0,46,0.00,,,0.00,0.000000,,2013-12-28 02:42:00,
2013-12-27 19:52:00,30.0,12.0,-100.00,ENE,75,2.0,4.0,46,0.00,,,0.00,0.000000,,2013-12-28 02:52:00,
2013-12-27 20:02:00,30.0,12.0,-100.00,ENE,75,2.0,4.0,46,0.00,,,0.00,0.000000,,2013-12-28 03:02:00,
2013-12-27 20:43:00,29.0,14.0,-100.00,NE,54,1.0,5.0,53,0.00,,,0.00,0.000000,,2013-12-28 03:43:00,
2013-12-27 20:53:00,29.0,14.0,-100.00,NE,54,1.0,5.0,53,0.00,,,0.00,0.000000,,2013-12-28 03:53:00,
2013-12-27 21:03:00,29.0,14.0,-100.00,NE,54,1.0,5.0,53,0.00,,,0.00,0.000000,,2013-12-28 04:03:00,
2013-12-27 21:42:00,27.0,13.0,-100.00,NE,43,2.0,4.0,55,-99.99,,,0.00,0.000000,,2013-12-28 04:42:00,
2013-12-27 21:52:00,27.0,13.0,-100.00,NE,43,2.0,4.0,55,-99.99,,,0.00,0.000000,,2013-12-28 04:52:00,
2013-12-27 22:02:00,27.0,13.0,-100.00,NE,43,2.0,4.0,55,-99.99,,,0.00,0.000000,,2013-12-28 05:02:00,
2013-12-27 23:42:00,23.0,14.0,-100.00,East,90,2.0,4.0,68,-99.99,,,0.00,0.000000,,2013-12-28 06:42:00,
2013-12-27 23:52:00,23.0,14.0,-100.00,East,90,2.0,4.0,68,-99.99,,,0.00,0.000000,,2013-12-28 06:52:00,